createdAt,value
2018-06-21T00:00:08.119Z,17.80
2018-06-21T00:05:06.385Z,17.70
2018-06-21T00:07:35.749Z,17.60
2018-06-21T00:10:05.120Z,17.60
2018-06-21T00:12:34.439Z,17.50
2018-06-21T00:15:03.878Z,17.50
2018-06-21T00:17:33.260Z,17.50
2018-06-21T00:20:02.615Z,17.60
2018-06-21T00:22:31.929Z,17.60
2018-06-21T00:25:01.323Z,17.50
2018-06-21T00:27:30.661Z,17.50
2018-06-21T00:29:59.956Z,17.40
2018-06-21T00:32:29.233Z,17.30
2018-06-21T00:34:58.541Z,17.30
2018-06-21T00:37:27.941Z,17.20
2018-06-21T00:39:57.233Z,17.30
2018-06-21T00:42:26.739Z,17.20
2018-06-21T00:44:56.350Z,17.30
2018-06-21T00:47:25.701Z,17.20
2018-06-21T00:49:55.527Z,17.10
2018-06-21T00:52:24.801Z,17.30
2018-06-21T00:54:54.063Z,17.20
2018-06-21T00:57:23.401Z,17.10
2018-06-21T00:59:52.774Z,17.20
2018-06-21T01:02:22.066Z,16.90
2018-06-21T01:04:51.423Z,17.00
2018-06-21T01:07:20.743Z,17.00
2018-06-21T01:09:50.033Z,16.80
2018-06-21T01:12:21.597Z,16.90
2018-06-21T01:14:52.876Z,16.90
2018-06-21T01:17:22.351Z,16.90
2018-06-21T01:19:51.702Z,16.90
2018-06-21T01:22:21.068Z,16.80
2018-06-21T01:24:50.666Z,16.80
2018-06-21T01:27:20.012Z,16.60
2018-06-21T01:29:49.308Z,16.60
2018-06-21T01:32:18.603Z,16.60
2018-06-21T01:34:47.888Z,16.60
2018-06-21T01:37:17.171Z,16.50
2018-06-21T01:39:46.465Z,16.40
2018-06-21T01:42:15.865Z,16.50
2018-06-21T01:44:45.153Z,16.50
2018-06-21T01:47:14.473Z,16.60
2018-06-21T01:49:43.733Z,16.40
2018-06-21T01:52:13.037Z,16.30
2018-06-21T01:54:42.366Z,16.20
2018-06-21T01:57:11.683Z,16.30
2018-06-21T01:59:40.997Z,16.40
2018-06-21T02:02:10.321Z,16.30
2018-06-21T02:04:39.634Z,16.30
2018-06-21T02:07:08.922Z,16.30
2018-06-21T02:09:38.197Z,16.40
2018-06-21T02:12:07.497Z,16.20
2018-06-21T02:14:36.793Z,16.30
2018-06-21T02:17:06.144Z,16.30
2018-06-21T02:19:35.467Z,16.30
2018-06-21T02:22:04.787Z,16.10
2018-06-21T02:24:34.100Z,16.00
2018-06-21T02:27:04.614Z,16.00
2018-06-21T02:29:33.976Z,16.00
2018-06-21T02:32:03.305Z,16.00
2018-06-21T02:34:32.622Z,15.90
2018-06-21T02:37:01.939Z,15.80
2018-06-21T02:39:31.276Z,15.70
2018-06-21T02:42:00.775Z,15.70
2018-06-21T02:44:30.087Z,15.70
2018-06-21T02:46:59.389Z,15.70
2018-06-21T02:49:28.668Z,15.60
2018-06-21T02:51:57.979Z,15.50
2018-06-21T02:54:27.253Z,15.50
2018-06-21T02:56:56.592Z,15.40
2018-06-21T02:59:25.853Z,15.40
2018-06-21T03:01:55.230Z,15.40
2018-06-21T03:04:24.538Z,15.30
2018-06-21T03:06:53.850Z,15.30
2018-06-21T03:09:23.145Z,15.30
2018-06-21T03:11:52.439Z,15.30
2018-06-21T03:14:21.784Z,15.20
2018-06-21T03:16:51.081Z,15.20
2018-06-21T03:19:20.436Z,15.40
2018-06-21T03:21:49.776Z,15.50
2018-06-21T03:24:19.093Z,15.50
2018-06-21T03:26:48.721Z,15.50
2018-06-21T03:29:18.008Z,15.50
2018-06-21T03:31:47.289Z,15.40
2018-06-21T03:34:16.622Z,15.40
2018-06-21T03:36:45.909Z,15.30
2018-06-21T03:39:15.201Z,15.40
2018-06-21T03:41:44.551Z,15.50
2018-06-21T03:46:42.652Z,15.70
2018-06-21T03:49:11.942Z,15.70
2018-06-21T03:51:41.244Z,15.60
2018-06-21T03:54:10.548Z,15.30
2018-06-21T03:56:39.917Z,15.30
2018-06-21T03:59:09.206Z,15.30
2018-06-21T04:01:38.542Z,15.30
2018-06-21T04:06:36.736Z,15.40
2018-06-21T04:11:36.247Z,15.90
2018-06-21T04:14:05.417Z,16.00
2018-06-21T04:16:34.494Z,16.00
2018-06-21T04:19:03.919Z,16.20
2018-06-21T04:21:33.177Z,16.30
2018-06-21T04:24:02.454Z,16.30
2018-06-21T04:26:31.741Z,16.20
2018-06-21T04:29:01.018Z,16.40
2018-06-21T04:31:30.340Z,16.60
2018-06-21T04:36:28.478Z,17.00
2018-06-21T04:38:57.775Z,17.20
2018-06-21T04:41:27.048Z,17.30
2018-06-21T04:43:56.327Z,17.50
2018-06-21T04:46:25.673Z,17.20
2018-06-21T04:48:54.960Z,17.00
2018-06-21T04:51:24.923Z,16.70
2018-06-21T04:53:54.241Z,17.30
2018-06-21T04:56:23.987Z,17.20
2018-06-21T05:01:22.179Z,17.10
2018-06-21T05:03:51.562Z,17.90
2018-06-21T05:06:20.934Z,17.70
2018-06-21T05:08:50.245Z,17.60
2018-06-21T05:11:19.597Z,18.50
2018-06-21T05:13:48.970Z,19.00
2018-06-21T05:16:18.288Z,19.20
2018-06-21T05:18:47.728Z,19.70
2018-06-21T05:21:17.067Z,19.50
2018-06-21T05:23:46.404Z,19.90
2018-06-21T05:26:15.764Z,19.60
2018-06-21T05:28:45.073Z,19.60
2018-06-21T05:31:14.456Z,18.80
2018-06-21T05:33:43.794Z,18.90
2018-06-21T05:36:13.419Z,19.90
2018-06-21T05:38:42.973Z,20.20
2018-06-21T05:41:12.333Z,20.30
2018-06-21T05:43:41.864Z,20.20
2018-06-21T05:46:11.214Z,21.00
2018-06-21T05:48:40.632Z,21.50
2018-06-21T05:51:10.047Z,21.20
2018-06-21T05:53:39.458Z,21.50
2018-06-21T05:56:08.883Z,20.90
2018-06-21T05:58:38.259Z,20.70
2018-06-21T06:01:07.831Z,21.10
2018-06-21T06:03:37.155Z,21.70
2018-06-21T06:06:06.480Z,22.60
2018-06-21T06:08:35.847Z,22.80
2018-06-21T06:11:07.072Z,23.40
2018-06-21T06:13:36.372Z,23.40
2018-06-21T06:16:05.762Z,23.40
2018-06-21T06:18:35.233Z,22.80
2018-06-21T06:21:04.683Z,22.80
2018-06-21T06:23:34.006Z,23.00
2018-06-21T06:26:03.377Z,23.20
2018-06-21T06:28:32.793Z,23.30
2018-06-21T06:31:02.210Z,22.70
2018-06-21T06:33:31.539Z,22.20
2018-06-21T06:36:00.896Z,22.20
2018-06-21T06:38:30.306Z,22.40
2018-06-21T06:40:59.658Z,22.60
2018-06-21T06:43:29.208Z,23.10
2018-06-21T06:45:58.633Z,23.30
2018-06-21T06:48:28.039Z,23.10
2018-06-21T06:50:57.815Z,23.30
2018-06-21T06:53:28.284Z,24.00
2018-06-21T06:55:57.833Z,24.60
2018-06-21T06:58:27.265Z,24.70
2018-06-21T07:00:56.853Z,24.40
2018-06-21T07:03:26.253Z,24.20
2018-06-21T07:05:55.822Z,23.80
2018-06-21T07:08:25.272Z,23.30
2018-06-21T07:10:55.125Z,23.10
2018-06-21T07:13:26.937Z,23.00
2018-06-21T07:15:56.494Z,23.00
2018-06-21T07:18:27.978Z,23.10
2018-06-21T07:20:57.512Z,23.30
2018-06-21T07:23:28.488Z,23.30
2018-06-21T07:25:57.869Z,23.30
2018-06-21T07:28:27.313Z,23.60
2018-06-21T07:30:56.864Z,23.80
2018-06-21T07:33:27.062Z,24.10
2018-06-21T07:35:56.566Z,23.70
2018-06-21T07:38:26.172Z,24.10
2018-06-21T07:40:55.722Z,24.20
2018-06-21T07:43:25.829Z,24.20
2018-06-21T07:45:55.309Z,24.60
2018-06-21T07:48:25.244Z,24.70
2018-06-21T07:50:54.690Z,24.00
2018-06-21T07:53:24.612Z,23.20
2018-06-21T07:55:54.237Z,22.90
2018-06-21T07:58:23.608Z,22.90
2018-06-21T08:00:53.377Z,22.90
2018-06-21T08:03:22.761Z,22.60
2018-06-21T08:05:52.177Z,22.50
2018-06-21T08:08:21.575Z,22.20
2018-06-21T08:10:52.274Z,22.30
2018-06-21T08:13:22.100Z,22.80
2018-06-21T08:15:51.508Z,23.10
2018-06-21T08:18:20.938Z,23.70
2018-06-21T08:20:53.935Z,23.50
2018-06-21T08:23:24.000Z,22.80
2018-06-21T08:25:53.563Z,22.20
2018-06-21T08:28:23.904Z,21.80
2018-06-21T08:30:53.298Z,21.50
2018-06-21T08:33:23.102Z,21.10
2018-06-21T08:35:52.556Z,20.60
2018-06-21T08:38:22.035Z,20.50
2018-06-21T08:40:51.422Z,20.20
2018-06-21T08:43:21.526Z,20.10
2018-06-21T08:45:51.683Z,19.90
2018-06-21T08:48:21.120Z,20.30
2018-06-21T08:50:51.078Z,20.70
2018-06-21T08:53:21.661Z,20.90
2018-06-21T08:55:54.182Z,21.00
2018-06-21T08:58:24.661Z,21.20
2018-06-21T09:00:54.655Z,21.20
2018-06-21T09:03:24.292Z,21.10
2018-06-21T09:05:56.436Z,20.90
2018-06-21T09:08:27.800Z,20.70
2018-06-21T09:13:42.823Z,20.60
2018-06-21T09:16:12.487Z,20.50
2018-06-21T09:18:42.430Z,20.50
2018-06-21T09:21:11.764Z,20.10
2018-06-21T09:23:41.134Z,19.50
2018-06-21T09:26:10.422Z,19.00
2018-06-21T09:28:39.762Z,18.50
2018-06-21T09:31:09.150Z,18.10
2018-06-21T09:33:38.512Z,18.10
2018-06-21T09:36:08.194Z,18.10
2018-06-21T09:38:43.826Z,18.30
2018-06-21T09:41:18.461Z,18.50
2018-06-21T09:44:03.819Z,19.10
2018-06-21T09:46:33.871Z,19.90
2018-06-21T09:48:58.712Z,20.30
2018-06-21T09:51:27.981Z,20.60
2018-06-21T09:53:57.298Z,20.50
2018-06-21T09:56:26.570Z,20.70
2018-06-21T09:58:55.898Z,20.60
2018-06-21T10:01:25.171Z,20.60
2018-06-21T10:03:54.495Z,20.80
2018-06-21T10:06:23.826Z,21.30
2018-06-21T10:08:53.093Z,21.30
2018-06-21T10:14:13.848Z,22.10
2018-06-21T10:16:43.129Z,21.80
2018-06-21T10:19:12.477Z,22.40
2018-06-21T10:21:41.834Z,22.60
2018-06-21T10:24:11.084Z,22.60
2018-06-21T10:29:09.430Z,23.60
2018-06-21T10:31:38.829Z,24.00
2018-06-21T10:34:08.237Z,23.70
2018-06-21T10:36:37.667Z,23.90
2018-06-21T10:39:09.347Z,23.30
2018-06-21T10:41:38.679Z,23.10
2018-06-21T10:44:08.083Z,22.80
2018-06-21T10:46:38.445Z,22.30
2018-06-21T10:49:07.914Z,21.80
2018-06-21T10:51:37.546Z,21.80
2018-06-21T10:54:06.908Z,21.90
2018-06-21T10:56:36.269Z,21.50
2018-06-21T10:59:07.358Z,21.30
2018-06-21T11:01:36.983Z,21.30
2018-06-21T11:04:06.371Z,21.80
2018-06-21T11:06:35.737Z,23.00
2018-06-21T11:09:07.591Z,23.70
2018-06-21T11:11:36.960Z,24.10
2018-06-21T11:14:06.352Z,24.10
2018-06-21T11:16:35.731Z,24.70
2018-06-21T11:19:05.723Z,23.80
2018-06-21T11:21:34.997Z,22.90
2018-06-21T11:24:04.517Z,22.40
2018-06-21T11:26:33.841Z,22.90
2018-06-21T11:29:03.264Z,23.50
2018-06-21T11:31:32.543Z,23.60
2018-06-21T11:34:01.898Z,23.40
2018-06-21T11:36:31.393Z,23.60
2018-06-21T11:39:00.772Z,23.30
2018-06-21T11:41:30.104Z,23.10
2018-06-21T11:43:59.384Z,23.60
2018-06-21T11:46:28.695Z,23.50
2018-06-21T11:48:58.059Z,23.10
2018-06-21T11:51:27.454Z,22.40
2018-06-21T11:53:56.731Z,21.60
2018-06-21T11:56:26.155Z,22.10
2018-06-21T11:58:55.406Z,23.40
2018-06-21T12:01:26.642Z,21.70
2018-06-21T12:03:56.247Z,22.10
2018-06-21T12:06:25.588Z,22.80
2018-06-21T12:08:55.672Z,23.30
2018-06-21T12:11:24.932Z,24.00
2018-06-21T12:13:54.248Z,23.50
2018-06-21T12:16:23.737Z,24.10
2018-06-21T12:18:53.271Z,23.70
2018-06-21T12:21:22.519Z,22.90
2018-06-21T12:23:51.883Z,22.30
2018-06-21T12:26:21.128Z,21.80
2018-06-21T12:28:51.636Z,21.80
2018-06-21T12:31:21.617Z,22.10
2018-06-21T12:33:50.968Z,22.30
2018-06-21T12:36:20.305Z,21.80
2018-06-21T12:38:50.323Z,22.10
2018-06-21T12:41:19.621Z,23.00
2018-06-21T12:43:48.951Z,23.90
2018-06-21T12:46:18.235Z,24.00
2018-06-21T12:48:47.607Z,24.40
2018-06-21T12:51:16.909Z,24.80
2018-06-21T12:53:46.247Z,24.40
2018-06-21T12:56:15.536Z,24.90
2018-06-21T12:58:44.813Z,24.70
2018-06-21T13:01:14.131Z,24.60
2018-06-21T13:03:43.458Z,23.70
2018-06-21T13:06:12.788Z,23.70
2018-06-21T13:08:53.968Z,23.10
2018-06-21T13:11:41.016Z,22.50
2018-06-21T13:14:22.450Z,21.50
2018-06-21T13:16:51.766Z,21.80
2018-06-21T13:19:21.039Z,21.80
2018-06-21T13:21:50.350Z,21.70
2018-06-21T13:24:19.673Z,21.60
2018-06-21T13:26:49.133Z,21.70
2018-06-21T13:29:18.587Z,22.00
2018-06-21T13:31:47.911Z,21.60
2018-06-21T13:34:17.436Z,22.10
2018-06-21T13:36:46.756Z,22.80
2018-06-21T13:39:16.063Z,22.40
2018-06-21T13:41:45.390Z,22.10
2018-06-21T13:44:14.676Z,22.10
2018-06-21T13:46:44.020Z,21.70
2018-06-21T13:49:13.379Z,22.60
2018-06-21T13:51:42.733Z,23.20
2018-06-21T13:54:12.352Z,22.40
2018-06-21T13:56:42.871Z,22.70
2018-06-21T13:59:12.304Z,22.70
2018-06-21T14:01:41.863Z,22.10
2018-06-21T14:04:11.440Z,22.50
2018-06-21T14:06:41.035Z,22.70
2018-06-21T14:09:11.730Z,22.90
2018-06-21T14:11:41.645Z,23.40
2018-06-21T14:14:11.039Z,23.00
2018-06-21T14:16:40.367Z,23.20
2018-06-21T14:19:09.677Z,23.30
2018-06-21T14:21:39.051Z,22.90
2018-06-21T14:24:11.668Z,23.40
2018-06-21T14:26:41.389Z,23.20
2018-06-21T14:29:10.754Z,23.50
2018-06-21T14:31:40.567Z,23.10
2018-06-21T14:34:09.860Z,22.70
2018-06-21T14:36:39.321Z,23.00
2018-06-21T14:39:09.415Z,22.90
2018-06-21T14:41:38.769Z,22.90
2018-06-21T14:44:08.156Z,22.50
2018-06-21T14:46:37.586Z,22.20
2018-06-21T14:49:06.903Z,22.10
2018-06-21T14:51:36.340Z,22.00
2018-06-21T14:54:05.703Z,22.20
2018-06-21T14:56:34.984Z,22.60
2018-06-21T14:59:04.356Z,22.60
2018-06-21T15:01:33.670Z,22.00
2018-06-21T15:04:02.931Z,21.60
2018-06-21T15:06:32.242Z,21.90
2018-06-21T15:09:01.669Z,21.60
2018-06-21T15:11:31.191Z,21.90
2018-06-21T15:14:01.732Z,22.10
2018-06-21T15:16:31.127Z,21.90
2018-06-21T15:19:00.532Z,21.40
2018-06-21T15:21:29.897Z,21.00
2018-06-21T15:23:59.673Z,20.80
2018-06-21T15:26:29.100Z,20.90
2018-06-21T15:28:58.424Z,21.40
2018-06-21T15:31:27.859Z,21.20
2018-06-21T15:33:57.433Z,21.40
2018-06-21T15:36:27.521Z,21.00
2018-06-21T15:38:58.751Z,21.10
2018-06-21T15:41:29.501Z,21.10
2018-06-21T15:43:59.058Z,21.00
2018-06-21T15:46:28.560Z,21.80
2018-06-21T15:48:57.893Z,21.40
2018-06-21T15:51:27.320Z,21.10
2018-06-21T15:53:56.570Z,21.30
2018-06-21T15:56:25.966Z,21.20
2018-06-21T15:58:55.205Z,21.00
2018-06-21T16:01:24.548Z,20.90
2018-06-21T16:03:53.846Z,21.20
2018-06-21T16:06:23.289Z,21.30
2018-06-21T16:08:52.555Z,21.00
2018-06-21T16:11:21.947Z,20.30
2018-06-21T16:13:51.337Z,20.10
2018-06-21T16:16:20.616Z,19.90
2018-06-21T16:21:18.914Z,19.20
2018-06-21T16:23:48.241Z,18.90
2018-06-21T16:26:17.605Z,18.60
2018-06-21T16:28:46.918Z,18.60
2018-06-21T16:33:45.275Z,19.00
2018-06-21T16:36:14.672Z,19.20
2018-06-21T16:38:44.106Z,19.30
2018-06-21T16:41:14.861Z,19.50
2018-06-21T16:43:44.210Z,19.20
2018-06-21T16:46:13.710Z,19.20
2018-06-21T16:48:43.056Z,19.20
2018-06-21T16:53:41.282Z,19.30
2018-06-21T16:56:10.635Z,18.80
2018-06-21T16:58:40.196Z,18.70
2018-06-21T17:01:09.563Z,18.90
2018-06-21T17:03:38.915Z,18.60
2018-06-21T17:06:08.317Z,18.00
2018-06-21T17:08:37.607Z,18.00
2018-06-21T17:11:06.933Z,17.50
2018-06-21T17:13:36.445Z,17.60
2018-06-21T17:16:05.912Z,17.50
2018-06-21T17:18:35.237Z,17.30
2018-06-21T17:21:04.725Z,17.40
2018-06-21T17:23:34.114Z,17.30
2018-06-21T17:26:03.450Z,17.30
2018-06-21T17:28:33.027Z,17.20
2018-06-21T17:31:02.318Z,17.20
2018-06-21T17:33:31.672Z,17.40
2018-06-21T17:36:00.932Z,17.20
2018-06-21T17:38:30.297Z,17.00
2018-06-21T17:40:59.605Z,17.00
2018-06-21T17:43:28.895Z,16.90
2018-06-21T17:45:58.165Z,17.20
2018-06-21T17:48:27.660Z,17.20
2018-06-21T17:50:57.009Z,17.20
2018-06-21T17:53:26.302Z,16.90
2018-06-21T17:55:55.579Z,17.00
2018-06-21T17:58:25.385Z,17.00
2018-06-21T18:00:54.710Z,16.70
2018-06-21T18:03:24.272Z,16.50
2018-06-21T18:05:53.558Z,16.60
2018-06-21T18:08:22.890Z,16.60
2018-06-21T18:10:52.244Z,16.80
2018-06-21T18:13:21.541Z,16.60
2018-06-21T18:15:50.784Z,16.60
2018-06-21T18:18:20.084Z,16.70
2018-06-21T18:20:49.382Z,16.60
2018-06-21T18:23:18.693Z,16.60
2018-06-21T18:25:48.013Z,16.50
2018-06-21T18:28:17.311Z,16.40
2018-06-21T18:30:46.587Z,16.10
2018-06-21T18:33:15.865Z,16.00
2018-06-21T18:35:45.176Z,16.00
2018-06-21T18:38:14.538Z,16.20
2018-06-21T18:40:43.856Z,16.20
2018-06-21T18:43:13.517Z,16.00
2018-06-21T18:45:43.091Z,15.90
2018-06-21T18:48:12.688Z,15.70
2018-06-21T18:50:42.208Z,15.70
2018-06-21T18:53:11.571Z,15.60
2018-06-21T18:55:41.000Z,15.50
2018-06-21T18:58:10.623Z,15.50
2018-06-21T19:00:40.033Z,15.50
2018-06-21T19:03:09.317Z,15.40
2018-06-21T19:05:38.602Z,15.20
2018-06-21T19:08:13.358Z,15.30
2018-06-21T19:10:48.273Z,15.20
2018-06-21T19:13:17.638Z,15.00
2018-06-21T19:15:47.543Z,15.00
2018-06-21T19:18:17.060Z,15.10
2018-06-21T19:20:46.487Z,15.00
2018-06-21T19:23:16.529Z,14.90
2018-06-21T19:25:46.043Z,15.00
2018-06-21T19:28:15.756Z,14.90
2018-06-21T19:30:45.153Z,14.90
2018-06-21T19:33:14.548Z,14.90
2018-06-21T19:35:44.039Z,15.10
2018-06-21T19:38:13.441Z,15.00
2018-06-21T19:40:42.910Z,15.10
2018-06-21T19:43:12.377Z,15.00
2018-06-21T19:45:41.857Z,15.00
2018-06-21T19:48:12.588Z,14.80
2018-06-21T19:50:42.283Z,14.70
2018-06-21T19:53:11.705Z,14.70
2018-06-21T19:55:41.229Z,14.60
2018-06-21T19:58:10.738Z,14.50
2018-06-21T20:00:40.351Z,14.30
2018-06-21T20:03:09.911Z,14.00
2018-06-21T20:05:39.433Z,13.90
2018-06-21T20:08:08.874Z,13.80
2018-06-21T20:10:38.469Z,13.80
2018-06-21T20:13:08.072Z,13.70
2018-06-21T20:15:47.772Z,13.70
2018-06-21T20:18:17.445Z,13.70
2018-06-21T20:20:47.141Z,13.60
2018-06-21T20:23:17.130Z,13.60
2018-06-21T20:25:46.670Z,13.70
2018-06-21T20:28:16.555Z,13.70
2018-06-21T20:30:45.923Z,13.80
2018-06-21T20:33:15.326Z,13.80
2018-06-21T20:35:44.928Z,13.70
2018-06-21T20:38:14.301Z,13.90
2018-06-21T20:40:43.771Z,13.70
2018-06-21T20:43:13.295Z,13.70
2018-06-21T20:45:42.778Z,13.70
2018-06-21T20:48:12.285Z,13.60
2018-06-21T20:50:41.787Z,13.60
2018-06-21T20:53:11.358Z,13.50
2018-06-21T20:55:40.795Z,13.40
2018-06-21T20:58:10.180Z,13.40
2018-06-21T21:00:39.724Z,13.40
2018-06-21T21:03:09.089Z,13.30
2018-06-21T21:05:38.497Z,13.30
2018-06-21T21:08:07.798Z,13.20
2018-06-21T21:10:37.031Z,13.10
2018-06-21T21:13:06.463Z,13.00
2018-06-21T21:15:36.055Z,12.90
2018-06-21T21:18:05.524Z,13.00
2018-06-21T21:20:34.881Z,12.90
2018-06-21T21:23:04.283Z,12.80
2018-06-21T21:25:33.590Z,12.80
2018-06-21T21:28:02.939Z,12.70
2018-06-21T21:30:32.513Z,12.70
2018-06-21T21:33:01.923Z,12.60
2018-06-21T21:35:31.332Z,12.50
2018-06-21T21:38:00.848Z,12.40
2018-06-21T21:40:30.240Z,12.40
2018-06-21T21:42:59.771Z,12.30
2018-06-21T21:45:29.144Z,12.30
2018-06-21T21:47:58.590Z,12.20
2018-06-21T21:50:27.951Z,12.30
2018-06-21T21:52:57.375Z,12.40
2018-06-21T21:55:26.725Z,12.30
2018-06-21T21:57:56.109Z,12.10
2018-06-21T22:00:43.002Z,12.00
2018-06-21T22:03:13.073Z,12.00
2018-06-21T22:05:42.852Z,11.90
2018-06-21T22:08:12.327Z,11.90
2018-06-21T22:10:43.234Z,11.80
2018-06-21T22:13:13.490Z,11.90
2018-06-21T22:15:42.914Z,11.80
2018-06-21T22:18:12.559Z,11.70
2018-06-21T22:20:42.015Z,11.60
2018-06-21T22:23:11.416Z,11.60
2018-06-21T22:25:40.793Z,11.70
2018-06-21T22:28:10.120Z,11.70
2018-06-21T22:30:39.475Z,11.70
2018-06-21T22:33:08.877Z,11.80
2018-06-21T22:35:38.272Z,11.80
2018-06-21T22:38:07.804Z,11.90
2018-06-21T22:40:37.802Z,11.90
2018-06-21T22:43:07.354Z,12.00
2018-06-21T22:45:36.792Z,11.80
2018-06-21T22:48:06.502Z,11.90
2018-06-21T22:50:36.079Z,11.80
2018-06-21T22:53:06.050Z,11.80
2018-06-21T22:55:35.615Z,11.70
2018-06-21T23:00:34.881Z,11.90
2018-06-21T23:03:04.370Z,11.90
2018-06-21T23:05:33.953Z,11.80
2018-06-21T23:08:03.434Z,11.80
2018-06-21T23:10:32.856Z,11.80
2018-06-21T23:13:02.315Z,11.90
2018-06-21T23:15:32.038Z,11.90
2018-06-21T23:18:01.542Z,11.90
2018-06-21T23:20:30.906Z,11.90
2018-06-21T23:23:00.422Z,11.90
2018-06-21T23:25:29.940Z,11.90
2018-06-21T23:27:59.449Z,11.70
2018-06-21T23:30:28.978Z,11.70
2018-06-21T23:32:59.023Z,11.70
2018-06-21T23:35:29.054Z,11.60
2018-06-21T23:37:59.108Z,11.80
2018-06-21T23:40:28.800Z,11.80
2018-06-21T23:42:58.318Z,11.80
2018-06-21T23:45:27.814Z,11.80
2018-06-21T23:47:57.496Z,11.80
2018-06-21T23:50:26.981Z,11.80
2018-06-21T23:52:56.472Z,11.80
2018-06-21T23:55:25.941Z,11.80
2018-06-21T23:57:55.464Z,11.70
